Austin, PA

6:10 PM EDT on October 31, 2014 (GMT -0400)
Jenkins Hill | Change Station
CLOSE
Current Station
Personal Weather Station
Location: Coudersport, PA
Elevation: 2150 ft
Nearby Weather Stations

Elev 2150 ft 41.74 °N, 77.97 °W | Updated 0 second ago

Rain
Rain
39.4 °F
Feels Like 39 °F
N
0.0
Wind Variable Wind from SSW
Gusts 0.0 mph

Today
High -- | Low -- °F
--% Chance of Precip.
Yesterday
High -- | Low -- °F
Precip. -- in
7:42 AM 6:07 PM
First Quarter, 59% visible
Pressure 29.94 in
Visibility 10.0 miles
Clouds Overcast 3000 ft
Windchill 39 °F
Dew Point 36 °F
Humidity 86%
Rainfall 0.00 in
Snow Depth Not available.
UV 0 out of 12
Pollen .10 out of 12
Air Quality Not available.
Flu Activity Not available.
METAR KELZ 312156Z AUTO 34003KT 10SM -RA OVC030 04/03 A2989 RMK AO2 SLP136 P0002 T00440028

More Conditions Fewer Conditions

Pressure 29.94 in
Visibility 10.0 miles
Clouds Overcast 3000 ft
Windchill 39 °F
Dew Point 36 °F
Humidity 86%
Rainfall 0.00 in
Snow Depth Not available.
UV 0 out of 12
Pollen .10 out of 12
Air Quality Not available.
Flu Activity Not available.
METAR KELZ 312156Z AUTO 34003KT 10SM -RA OVC030 04/03 A2989 RMK AO2 SLP136 P0002 T00440028

More Conditions Fewer Conditions

Nowcast | as of 4:54 PM EDT on October 31, 2014

Patchy light rain will be across the western portion of central Pennsylvania this evening. The patches of rain are moving northeast at 30 mph.

×

10-Day Weather Forecast

Almanac

Astronomy

Oct. 31, 2014 Rise Set
Actual Time
Civil Twilight
Nautical Twilight
Astronomical Twilight
Moon
Length of Visible Light
Length of Day
Tomorrow will be .
, % of the Moon is Illuminated

Today's Extremes

State Highs State Lows

Community

WunderPhotos

Upload Photos

1,766,757 photos uploaded!

WunderBlogs® & News

Nearby

Air Quality

  Air Quality AQ Index Pollutant
Not available.

Snow Depth

Station Depth Elevation

Earthquake Activity

City Distance Mag. Time & Date
Minimum magnitude displayed is 2.5.

Coastal Water Temperatures

Place Temperature

Nearby Weather Stations